createdAt,value
2023-04-21T00:01:13.681Z,7.53
2023-04-21T00:04:00.264Z,8.40
2023-04-21T00:06:45.633Z,7.60
2023-04-21T00:09:31.165Z,6.93
2023-04-21T00:12:16.458Z,6.85
2023-04-21T00:15:01.875Z,7.03
2023-04-21T00:17:47.471Z,8.02
2023-04-21T00:20:32.824Z,7.32
2023-04-21T00:23:17.989Z,7.43
2023-04-21T00:26:03.425Z,8.57
2023-04-21T00:28:48.619Z,8.15
2023-04-21T00:31:34.249Z,7.53
2023-04-21T00:34:19.341Z,8.23
2023-04-21T00:37:04.855Z,9.30
2023-04-21T00:39:51.548Z,8.20
2023-04-21T00:42:37.131Z,8.40
2023-04-21T00:45:22.569Z,9.05
2023-04-21T00:48:08.537Z,8.32
2023-04-21T00:50:53.767Z,9.15
2023-04-21T00:53:38.814Z,8.52
2023-04-21T00:56:25.906Z,8.80
2023-04-21T00:59:11.054Z,9.20
2023-04-21T01:01:56.433Z,9.18
2023-04-21T01:04:42.021Z,9.23
2023-04-21T01:07:28.169Z,9.63
2023-04-21T01:10:14.427Z,9.65
2023-04-21T01:12:59.527Z,10.10
2023-04-21T01:15:44.935Z,8.75
2023-04-21T01:18:30.525Z,9.63
2023-04-21T01:21:16.936Z,8.80
2023-04-21T01:24:02.345Z,10.38
2023-04-21T01:26:49.399Z,9.85
2023-04-21T01:29:34.793Z,10.13
2023-04-21T01:32:23.765Z,9.77
2023-04-21T01:35:11.485Z,11.00
2023-04-21T01:37:57.740Z,10.40
2023-04-21T01:40:42.989Z,10.32
2023-04-21T01:43:28.331Z,10.38
2023-04-21T01:46:15.581Z,10.38
2023-04-21T01:49:00.647Z,10.73
2023-04-21T01:51:46.200Z,10.40
2023-04-21T01:54:31.447Z,10.75
2023-04-21T01:57:17.546Z,10.85
2023-04-21T02:00:03.993Z,10.05
2023-04-21T02:03:00.688Z,10.65
2023-04-21T02:05:46.297Z,10.60
2023-04-21T02:08:31.333Z,10.95
2023-04-21T02:11:16.711Z,10.95
2023-04-21T02:14:02.014Z,10.77
2023-04-21T02:16:47.474Z,10.70
2023-04-21T02:19:32.856Z,10.80
2023-04-21T02:22:18.071Z,10.70
2023-04-21T02:25:04.506Z,10.35
2023-04-21T02:27:49.901Z,10.15
2023-04-21T02:30:35.611Z,11.00
2023-04-21T02:33:20.692Z,11.63
2023-04-21T02:36:07.137Z,11.20
2023-04-21T02:38:52.632Z,11.55
2023-04-21T02:41:37.689Z,11.10
2023-04-21T02:44:23.019Z,11.43
2023-04-21T02:47:08.345Z,11.73
2023-04-21T02:49:54.298Z,10.77
2023-04-21T02:52:41.763Z,11.13
2023-04-21T02:55:27.039Z,11.25
2023-04-21T02:58:12.349Z,11.43
2023-04-21T03:00:57.502Z,11.50
2023-04-21T03:03:43.141Z,11.55
2023-04-21T03:06:29.961Z,11.15
2023-04-21T03:09:15.252Z,11.38
2023-04-21T03:12:01.544Z,11.80
2023-04-21T03:14:46.760Z,10.65
2023-04-21T03:17:33.314Z,11.57
2023-04-21T03:20:18.789Z,11.55
2023-04-21T03:23:05.898Z,11.45
2023-04-21T03:25:51.200Z,11.27
2023-04-21T03:28:36.467Z,11.82
2023-04-21T03:31:21.921Z,10.60
2023-04-21T03:34:07.368Z,12.13
2023-04-21T03:36:53.394Z,10.80
2023-04-21T03:39:39.568Z,11.30
2023-04-21T03:42:26.112Z,12.05
2023-04-21T03:45:11.400Z,12.65
2023-04-21T03:47:56.918Z,12.25
2023-04-21T03:50:41.990Z,12.18
2023-04-21T03:53:27.379Z,12.00
2023-04-21T03:56:12.764Z,12.60
2023-04-21T03:58:58.015Z,11.57
2023-04-21T04:01:43.332Z,11.52
2023-04-21T04:04:28.791Z,12.50
2023-04-21T04:07:14.005Z,12.35
2023-04-21T04:09:59.487Z,11.75
2023-04-21T04:12:45.748Z,12.13
2023-04-21T04:15:30.928Z,11.88
2023-04-21T04:18:16.515Z,13.45
2023-04-21T04:21:08.071Z,12.32
2023-04-21T04:23:53.314Z,11.77
2023-04-21T04:26:41.337Z,13.23
2023-04-21T04:29:26.995Z,12.60
2023-04-21T04:32:12.513Z,12.93
2023-04-21T04:34:58.812Z,12.05
2023-04-21T04:37:45.422Z,11.82
2023-04-21T04:40:30.558Z,12.52
2023-04-21T04:43:19.757Z,12.23
2023-04-21T04:46:05.555Z,13.05
2023-04-21T04:48:50.861Z,13.13
2023-04-21T04:51:36.442Z,12.20
2023-04-21T04:54:21.997Z,12.65
2023-04-21T04:57:07.562Z,11.65
2023-04-21T04:59:56.188Z,12.98
2023-04-21T05:02:41.888Z,12.30
2023-04-21T05:05:27.122Z,12.35
2023-04-21T05:08:16.500Z,13.05
2023-04-21T05:11:03.411Z,12.85
2023-04-21T05:13:51.834Z,12.77
2023-04-21T05:16:37.330Z,11.75
2023-04-21T05:19:22.886Z,12.82
2023-04-21T05:22:10.792Z,12.25
2023-04-21T05:24:56.206Z,13.48
2023-04-21T05:27:42.335Z,12.13
2023-04-21T05:30:27.419Z,12.88
2023-04-21T05:33:13.079Z,12.15
2023-04-21T05:35:58.080Z,13.75
2023-04-21T05:38:43.506Z,13.15
2023-04-21T05:41:28.900Z,12.73
2023-04-21T05:44:16.780Z,12.68
2023-04-21T05:47:04.841Z,12.00
2023-04-21T05:49:53.963Z,12.88
2023-04-21T05:52:39.510Z,12.30
2023-04-21T05:55:24.533Z,13.18
2023-04-21T05:58:10.039Z,13.18
2023-04-21T06:00:55.190Z,12.27
2023-04-21T06:03:40.957Z,12.23
2023-04-21T06:06:27.247Z,12.85
2023-04-21T06:09:15.520Z,12.20
2023-04-21T06:12:03.488Z,11.43
2023-04-21T06:14:49.061Z,13.40
2023-04-21T06:17:34.427Z,12.52
2023-04-21T06:20:19.792Z,12.02
2023-04-21T06:23:05.231Z,11.93
2023-04-21T06:26:07.061Z,12.32
2023-04-21T06:28:52.276Z,11.82
2023-04-21T06:31:37.793Z,13.07
2023-04-21T06:34:22.819Z,12.07
2023-04-21T06:37:08.134Z,12.02
2023-04-21T06:39:53.575Z,12.10
2023-04-21T06:42:38.990Z,12.90
2023-04-21T06:45:24.512Z,12.73
2023-04-21T06:48:12.688Z,11.75
2023-04-21T06:50:58.417Z,12.98
2023-04-21T06:53:43.576Z,12.93
2023-04-21T06:56:29.626Z,13.02
2023-04-21T06:59:14.765Z,12.55
2023-04-21T07:02:00.507Z,11.63
2023-04-21T07:04:45.752Z,13.07
2023-04-21T07:07:30.794Z,11.88
2023-04-21T07:10:19.287Z,11.88
2023-04-21T07:13:05.751Z,11.35
2023-04-21T07:15:52.147Z,13.13
2023-04-21T07:18:39.864Z,11.57
2023-04-21T07:21:26.366Z,12.25
2023-04-21T07:24:11.470Z,12.18
2023-04-21T07:26:56.796Z,12.32
2023-04-21T07:29:41.894Z,12.52
2023-04-21T07:32:27.459Z,12.45
2023-04-21T07:35:12.864Z,11.75
2023-04-21T07:37:58.319Z,12.52
2023-04-21T07:40:43.765Z,11.45
2023-04-21T07:43:30.960Z,11.30
2023-04-21T07:46:16.255Z,11.27
2023-04-21T07:49:03.898Z,12.05
2023-04-21T07:51:49.299Z,11.15
2023-04-21T07:54:34.697Z,11.77
2023-04-21T07:57:20.260Z,10.95
2023-04-21T08:00:06.460Z,11.35
2023-04-21T08:02:57.500Z,11.00
2023-04-21T08:05:43.235Z,11.25
2023-04-21T08:08:30.735Z,11.13
2023-04-21T08:11:17.269Z,11.20
2023-04-21T08:14:03.403Z,11.73
2023-04-21T08:16:49.176Z,11.95
2023-04-21T08:19:34.359Z,11.30
2023-04-21T08:22:19.743Z,10.82
2023-04-21T08:25:06.157Z,10.23
2023-04-21T08:27:51.969Z,11.32
2023-04-21T08:30:37.228Z,10.10
2023-04-21T08:33:23.726Z,10.02
2023-04-21T08:36:18.185Z,10.50
2023-04-21T08:39:11.708Z,10.05
2023-04-21T08:42:01.385Z,10.60
2023-04-21T08:47:33.097Z,10.88
2023-04-21T08:50:19.108Z,8.65
2023-04-21T08:53:04.610Z,9.38
2023-04-21T08:56:07.389Z,9.40
2023-04-21T08:58:56.342Z,10.10
2023-04-21T09:02:06.895Z,9.95
2023-04-21T09:04:54.757Z,9.32
2023-04-21T09:07:41.364Z,9.63
2023-04-21T09:10:27.080Z,9.85
2023-04-21T09:13:13.305Z,10.30
2023-04-21T09:15:59.579Z,9.00
2023-04-21T09:18:45.141Z,9.80
2023-04-21T09:21:32.439Z,8.90
2023-04-21T09:24:17.742Z,9.38
2023-04-21T09:27:06.513Z,8.30
2023-04-21T09:29:52.262Z,9.73
2023-04-21T09:32:39.279Z,9.43
2023-04-21T09:35:29.259Z,9.00
2023-04-21T09:38:14.683Z,9.80
2023-04-21T09:41:00.476Z,9.38
2023-04-21T09:43:45.916Z,9.07
2023-04-21T09:46:37.085Z,10.23
2023-04-21T09:49:23.820Z,9.07
2023-04-21T09:52:19.013Z,8.95
2023-04-21T09:55:11.572Z,8.30
2023-04-21T09:58:02.130Z,8.70
2023-04-21T10:00:47.769Z,8.82
2023-04-21T10:03:44.028Z,8.43
2023-04-21T10:06:30.159Z,8.40
2023-04-21T10:09:21.275Z,8.63
2023-04-21T10:12:09.538Z,9.18
2023-04-21T10:14:56.411Z,8.20
2023-04-21T10:17:45.256Z,8.48
2023-04-21T10:20:30.430Z,8.40
2023-04-21T10:23:29.751Z,7.47
2023-04-21T10:26:35.783Z,7.30
2023-04-21T10:29:43.782Z,7.80
2023-04-21T10:32:42.403Z,8.40
2023-04-21T10:36:04.758Z,7.50
2023-04-21T10:38:56.535Z,9.07
2023-04-21T10:41:46.263Z,8.32
2023-04-21T10:44:31.772Z,7.40
2023-04-21T10:47:26.558Z,7.38
2023-04-21T10:50:20.221Z,8.15
2023-04-21T10:53:13.817Z,7.30
2023-04-21T10:55:59.597Z,7.80
2023-04-21T10:58:49.729Z,6.95
2023-04-21T11:01:35.611Z,7.57
2023-04-21T11:04:23.098Z,7.70
2023-04-21T11:07:12.180Z,8.80
2023-04-21T11:10:06.288Z,7.25
2023-04-21T11:12:51.803Z,6.78
2023-04-21T11:15:37.346Z,7.57
2023-04-21T11:18:39.117Z,7.72
2023-04-21T11:21:24.751Z,7.63
2023-04-21T11:24:10.267Z,7.32
2023-04-21T11:26:56.671Z,7.53
2023-04-21T11:29:42.279Z,7.20
2023-04-21T11:32:27.647Z,7.35
2023-04-21T11:35:15.579Z,7.60
2023-04-21T11:38:05.784Z,7.25
2023-04-21T11:40:51.562Z,7.55
2023-04-21T11:43:37.907Z,7.80
2023-04-21T11:46:25.675Z,7.40
2023-04-21T11:49:12.803Z,6.95
2023-04-21T11:51:58.396Z,7.15
2023-04-21T11:54:43.556Z,7.25
2023-04-21T11:57:30.267Z,7.88
2023-04-21T12:00:16.134Z,7.13
2023-04-21T12:03:01.731Z,7.63
2023-04-21T12:05:46.982Z,7.05
2023-04-21T12:08:32.816Z,6.85
2023-04-21T12:11:18.224Z,6.70
2023-04-21T12:14:06.061Z,7.95
2023-04-21T12:16:57.080Z,7.20
2023-04-21T12:19:43.198Z,7.70
2023-04-21T12:22:31.016Z,6.80
2023-04-21T12:25:16.523Z,7.50
2023-04-21T12:28:02.225Z,7.45
2023-04-21T12:30:47.507Z,7.30
2023-04-21T12:33:32.760Z,6.68
2023-04-21T12:36:18.349Z,6.75
2023-04-21T12:39:03.656Z,6.85
2023-04-21T12:41:48.998Z,7.55
2023-04-21T12:44:34.352Z,7.07
2023-04-21T12:47:19.766Z,7.15
2023-04-21T12:50:05.609Z,6.65
2023-04-21T12:52:51.756Z,6.30
2023-04-21T12:55:37.486Z,7.50
2023-04-21T12:58:22.793Z,7.30
2023-04-21T13:01:08.412Z,6.40
2023-04-21T13:04:04.972Z,5.72
2023-04-21T13:06:51.052Z,6.85
2023-04-21T13:09:36.753Z,6.00
2023-04-21T13:12:21.878Z,5.95
2023-04-21T13:15:07.961Z,5.75
2023-04-21T13:17:53.259Z,5.90
2023-04-21T13:20:38.553Z,6.57
2023-04-21T13:23:24.127Z,6.07
2023-04-21T13:26:12.325Z,6.18
2023-04-21T13:28:57.792Z,6.30
2023-04-21T13:31:43.255Z,5.90
2023-04-21T13:34:32.290Z,6.55
2023-04-21T13:40:05.062Z,6.47
2023-04-21T13:42:50.211Z,7.28
2023-04-21T13:45:35.367Z,6.53
2023-04-21T13:48:21.994Z,6.13
2023-04-21T13:51:08.073Z,7.20
2023-04-21T13:53:53.522Z,6.55
2023-04-21T13:56:38.674Z,6.35
2023-04-21T13:59:23.937Z,6.15
2023-04-21T14:02:09.263Z,6.07
2023-04-21T14:04:55.082Z,6.22
2023-04-21T14:07:42.898Z,6.40
2023-04-21T14:10:27.942Z,6.43
2023-04-21T14:13:27.387Z,5.90
2023-04-21T14:16:19.744Z,6.18
2023-04-21T14:19:05.023Z,6.20
2023-04-21T14:21:50.354Z,5.75
2023-04-21T14:24:35.739Z,6.40
2023-04-21T14:27:21.361Z,6.40
2023-04-21T14:30:10.231Z,6.00
2023-04-21T14:32:58.207Z,6.18
2023-04-21T14:35:43.521Z,5.68
2023-04-21T14:38:30.599Z,7.32
2023-04-21T14:41:16.074Z,6.43
2023-04-21T14:44:01.232Z,6.30
2023-04-21T14:46:53.719Z,6.07
2023-04-21T14:49:47.035Z,6.13
2023-04-21T14:52:32.505Z,5.85
2023-04-21T14:55:19.880Z,6.10
2023-04-21T14:58:05.336Z,6.35
2023-04-21T15:00:50.869Z,5.78
2023-04-21T15:03:37.148Z,6.28
2023-04-21T15:06:22.896Z,5.40
2023-04-21T15:09:08.098Z,5.78
2023-04-21T15:11:54.614Z,5.57
2023-04-21T15:14:40.481Z,6.40
2023-04-21T15:17:25.708Z,6.60
2023-04-21T15:20:11.352Z,5.50
2023-04-21T15:22:57.111Z,5.95
2023-04-21T15:25:42.558Z,5.82
2023-04-21T15:28:27.629Z,6.90
2023-04-21T15:31:12.970Z,5.95
2023-04-21T15:33:58.206Z,6.57
2023-04-21T15:36:43.313Z,6.20
2023-04-21T15:39:28.722Z,5.93
2023-04-21T15:42:14.460Z,5.97
2023-04-21T15:45:02.001Z,6.40
2023-04-21T15:47:47.155Z,6.13
2023-04-21T15:50:32.765Z,5.90
2023-04-21T15:53:19.985Z,5.60
2023-04-21T15:56:05.706Z,5.50
2023-04-21T15:58:50.944Z,5.75
2023-04-21T16:01:36.489Z,5.80
2023-04-21T16:04:22.554Z,5.75
2023-04-21T16:07:08.130Z,5.90
2023-04-21T16:09:53.482Z,5.60
2023-04-21T16:12:39.292Z,5.80
2023-04-21T16:15:25.282Z,5.70
2023-04-21T16:18:10.480Z,6.22
2023-04-21T16:20:55.829Z,5.65
2023-04-21T16:23:41.947Z,4.95
2023-04-21T16:26:27.425Z,8.02
2023-04-21T16:29:15.616Z,6.43
2023-04-21T16:32:01.042Z,6.43
2023-04-21T16:34:46.242Z,6.03
2023-04-21T16:37:31.414Z,5.50
2023-04-21T16:40:16.993Z,5.38
2023-04-21T16:43:02.470Z,5.78
2023-04-21T16:45:47.724Z,5.50
2023-04-21T16:48:33.118Z,5.90
2023-04-21T16:51:26.065Z,5.90
2023-04-21T16:54:11.734Z,7.18
2023-04-21T16:56:57.535Z,4.68
2023-04-21T16:59:42.683Z,5.07
2023-04-21T17:02:27.923Z,5.28
2023-04-21T17:05:15.442Z,5.78
2023-04-21T17:08:00.787Z,5.05
2023-04-21T17:10:46.387Z,5.18
2023-04-21T17:13:31.429Z,5.72
2023-04-21T17:16:17.214Z,5.35
2023-04-21T17:19:02.538Z,5.13
2023-04-21T17:21:47.712Z,4.90
2023-04-21T17:24:44.895Z,4.93
2023-04-21T17:27:35.642Z,5.35
2023-04-21T17:30:22.753Z,5.55
2023-04-21T17:33:16.055Z,5.10
2023-04-21T17:36:03.127Z,5.50
2023-04-21T17:38:49.576Z,5.60
2023-04-21T17:41:34.981Z,4.50
2023-04-21T17:44:20.684Z,5.72
2023-04-21T17:47:08.351Z,5.68
2023-04-21T17:49:53.588Z,5.70
2023-04-21T17:52:39.755Z,6.18
2023-04-21T17:55:25.182Z,5.97
2023-04-21T17:58:12.402Z,6.20
2023-04-21T18:00:57.848Z,6.78
2023-04-21T18:03:43.531Z,5.72
2023-04-21T18:06:28.975Z,5.82
2023-04-21T18:09:14.352Z,5.45
2023-04-21T18:11:59.729Z,6.30
2023-04-21T18:14:45.103Z,5.60
2023-04-21T18:17:30.560Z,5.70
2023-04-21T18:20:16.086Z,5.72
2023-04-21T18:23:01.429Z,6.32
2023-04-21T18:25:47.037Z,6.05
2023-04-21T18:28:32.419Z,5.78
2023-04-21T18:31:17.768Z,6.38
2023-04-21T18:34:03.272Z,4.93
2023-04-21T18:36:49.332Z,5.38
2023-04-21T18:39:34.648Z,6.15
2023-04-21T18:42:19.726Z,5.10
2023-04-21T18:45:05.414Z,5.50
2023-04-21T18:47:50.523Z,5.70
2023-04-21T18:50:39.551Z,5.30
2023-04-21T18:53:25.234Z,5.60
2023-04-21T18:56:10.664Z,5.35
2023-04-21T18:58:56.875Z,5.43
2023-04-21T19:01:42.219Z,5.10
2023-04-21T19:04:27.492Z,5.38
2023-04-21T19:07:15.453Z,5.72
2023-04-21T19:10:00.764Z,5.82
2023-04-21T19:12:46.072Z,4.93
2023-04-21T19:15:31.282Z,5.38
2023-04-21T19:18:19.730Z,5.43
2023-04-21T19:21:05.841Z,5.47
2023-04-21T19:23:51.254Z,4.85
2023-04-21T19:26:36.591Z,5.00
2023-04-21T19:29:21.676Z,4.93
2023-04-21T19:32:07.476Z,4.63
2023-04-21T19:34:53.061Z,5.38
2023-04-21T19:37:38.687Z,5.55
2023-04-21T19:40:23.772Z,5.70
2023-04-21T19:43:14.516Z,6.03
2023-04-21T19:45:59.766Z,5.90
2023-04-21T19:48:44.836Z,5.45
2023-04-21T19:51:32.828Z,5.93
2023-04-21T19:54:18.109Z,5.68
2023-04-21T19:57:03.425Z,5.68
2023-04-21T19:59:49.053Z,6.05
2023-04-21T20:02:34.817Z,5.68
2023-04-21T20:05:20.286Z,5.85
2023-04-21T20:08:06.391Z,6.18
2023-04-21T20:10:51.647Z,5.97
2023-04-21T20:13:37.372Z,5.85
2023-04-21T20:16:23.793Z,6.05
2023-04-21T20:19:10.129Z,7.82
2023-04-21T20:21:55.374Z,6.15
2023-04-21T20:24:42.274Z,6.47
2023-04-21T20:27:27.673Z,7.70
2023-04-21T20:30:13.084Z,7.00
2023-04-21T20:32:58.202Z,6.22
2023-04-21T20:35:45.860Z,6.63
2023-04-21T20:38:34.288Z,7.30
2023-04-21T20:41:23.144Z,6.25
2023-04-21T20:44:09.046Z,6.30
2023-04-21T20:46:54.360Z,6.35
2023-04-21T20:49:40.300Z,6.60
2023-04-21T20:52:25.837Z,6.45
2023-04-21T20:55:11.094Z,6.15
2023-04-21T20:57:56.264Z,5.78
2023-04-21T21:00:41.772Z,5.78
2023-04-21T21:03:26.946Z,6.22
2023-04-21T21:06:12.967Z,6.00
2023-04-21T21:08:59.058Z,6.43
2023-04-21T21:11:44.431Z,6.60
2023-04-21T21:14:29.878Z,5.60
2023-04-21T21:17:16.505Z,5.95
2023-04-21T21:20:01.812Z,5.93
2023-04-21T21:22:47.264Z,6.10
2023-04-21T21:25:32.402Z,6.45
2023-04-21T21:28:19.068Z,6.25
2023-04-21T21:31:04.470Z,6.57
2023-04-21T21:33:50.155Z,6.20
2023-04-21T21:36:36.028Z,6.05
2023-04-21T21:39:21.471Z,6.88
2023-04-21T21:42:06.849Z,7.15
2023-04-21T21:44:52.258Z,6.97
2023-04-21T21:47:41.043Z,7.18
2023-04-21T21:50:28.178Z,6.35
2023-04-21T21:53:13.490Z,5.93
2023-04-21T21:55:59.811Z,7.32
2023-04-21T21:58:45.239Z,6.25
2023-04-21T22:01:30.393Z,6.68
2023-04-21T22:04:15.840Z,6.63
2023-04-21T22:07:01.663Z,7.03
2023-04-21T22:09:47.082Z,6.28
2023-04-21T22:12:33.041Z,7.10
2023-04-21T22:15:18.137Z,6.45
2023-04-21T22:18:03.581Z,7.60
2023-04-21T22:20:48.698Z,6.63
2023-04-21T22:23:33.925Z,6.22
2023-04-21T22:26:19.455Z,6.78
2023-04-21T22:29:04.501Z,8.25
2023-04-21T22:31:49.995Z,6.95
2023-04-21T22:34:35.124Z,6.78
2023-04-21T22:37:20.420Z,7.05
2023-04-21T22:40:09.904Z,7.22
2023-04-21T22:42:55.150Z,7.13
2023-04-21T22:45:42.759Z,7.03
2023-04-21T22:48:28.415Z,7.75
2023-04-21T22:51:20.691Z,7.00
2023-04-21T22:54:06.162Z,6.95
2023-04-21T22:56:51.663Z,7.30
2023-04-21T22:59:36.907Z,7.38
2023-04-21T23:02:22.327Z,6.88
2023-04-21T23:05:08.248Z,7.38
2023-04-21T23:07:54.372Z,6.72
2023-04-21T23:10:40.481Z,6.78
2023-04-21T23:13:25.905Z,7.00
2023-04-21T23:16:11.192Z,7.20
2023-04-21T23:18:56.399Z,7.63
2023-04-21T23:21:41.441Z,7.15
2023-04-21T23:24:26.568Z,7.10
2023-04-21T23:27:12.021Z,6.95
2023-04-21T23:29:57.497Z,7.43
2023-04-21T23:32:43.632Z,6.93
2023-04-21T23:35:29.013Z,6.70
2023-04-21T23:38:14.144Z,7.05
2023-04-21T23:40:59.535Z,7.13
2023-04-21T23:43:44.881Z,7.65
2023-04-21T23:46:30.684Z,7.55
2023-04-21T23:49:16.294Z,6.75
2023-04-21T23:52:01.556Z,7.45
2023-04-21T23:54:47.174Z,6.97
2023-04-21T23:57:32.756Z,7.20
